Sachs Harbour Airport, Northwest Territories

Past 24 Hour Conditions

Date / Time
(MDT)
Conditions Temp
(°C)
Humidity
(%)
Dew Point
(°C)
Wind
(km/h)
Pressure
(kPa)
Vis
(km)
Wind Chill
22 October 2014
9:00 N/A -17   82 -19 E 29 102.2 N/A -28
8:00 N/A -18 81 -20 E 27 102.2 N/A -29
7:00 N/A -18 83 -20 E 31 102.2 N/A -30
6:00 N/A -17   83 -19 E 30 102.1 N/A -29
5:00 N/A -18 84 -20 E 24 102.1 N/A -29
4:00 N/A -18 82 -20 E 25 102.1 N/A -29
3:00 N/A -18 83 -20 E 29 102.1 N/A -30
2:00 N/A -17   84 -19 E 22 102.1 N/A -28
1:00 N/A -18 84 -20 E 34 102.0 N/A -31
00:00 N/A -18 85 -20 E 31 102.0 N/A -30
21 October 2014
23:00 N/A -18 85 -20 ENE 42 102.0 N/A -32
22:00 N/A -17   83 -19 E 23 102.0 N/A -28
21:00 N/A -20 84 -22 NE 23 gust 32 102.0 N/A -31
20:00 N/A -20 84 -22 NNE 22 101.9 N/A -31
19:00 N/A -20 85 -22 ENE 33 101.9 N/A -33
18:00 N/A -20 85 -22 ENE 35 gust 47 101.8 N/A -33
17:00 Mainly Sunny -19 73 -23 ENE 52 101.9 16 -34
16:00 Mainly Sunny -18 73 -22 E 35 101.9 16 -31
15:00 Mainly Sunny -17   69 -21 E 37 101.9 16 -30
14:00 Drifting Snow -19 74 -23 ENE 48 101.8 16 -34
13:00 Drifting Snow -20 74 -23 ENE 58 101.8 16 -36
12:00 Drifting Snow -21   77 -24 ENE 59 101.8 16 -37
11:00 Blowing Snow -21   80 -24 NE 63 101.7 6 -38
10:00 N/A -21   86 -22 NE 54 101.6 N/A -37
9:00 N/A -20 86 -22 NE 37 101.6 N/A -34
N/A Not available
↑ Highest temperature
↓ Lowest temperature
* Value not significant.

If you require additional historical weather information, please visit Climate Data Online.

Date modified: